createdAt,value
2022-12-24T00:03:07.169Z,63.95
2022-12-24T00:08:15.513Z,89.78
2022-12-24T00:13:24.286Z,91.91
2022-12-24T00:18:32.657Z,88.88
2022-12-24T00:23:42.074Z,72.50
2022-12-24T00:28:50.557Z,91.19
2022-12-24T00:33:59.526Z,86.03
2022-12-24T00:39:08.118Z,88.07
2022-12-24T00:44:17.407Z,60.93
2022-12-24T00:49:26.308Z,96.34
2022-12-24T00:54:35.050Z,60.39
2022-12-24T00:59:43.744Z,45.20
2022-12-24T01:04:52.455Z,49.05
2022-12-24T01:10:01.198Z,51.13
2022-12-24T01:15:10.057Z,62.88
2022-12-24T01:20:18.412Z,55.53
2022-12-24T01:25:26.984Z,49.78
2022-12-24T01:30:35.466Z,46.50
2022-12-24T01:35:44.540Z,49.67
2022-12-24T01:40:53.054Z,43.43
2022-12-24T01:46:02.236Z,50.27
2022-12-24T01:51:10.657Z,52.82
2022-12-24T01:56:19.481Z,41.10
2022-12-24T02:01:28.085Z,41.07
2022-12-24T02:06:36.897Z,38.52
2022-12-24T02:11:45.667Z,31.60
2022-12-24T02:16:54.585Z,33.86
2022-12-24T02:22:02.687Z,30.93
2022-12-24T02:27:11.809Z,33.46
2022-12-24T02:32:20.474Z,35.26
2022-12-24T02:37:29.703Z,33.50
2022-12-24T02:42:38.135Z,29.01
2022-12-24T02:47:46.896Z,27.68
2022-12-24T02:52:55.101Z,28.55
2022-12-24T02:58:03.714Z,30.80
2022-12-24T03:03:12.420Z,28.10
2022-12-24T03:08:20.816Z,27.80
2022-12-24T03:13:29.422Z,27.19
2022-12-24T03:18:38.300Z,30.58
2022-12-24T03:23:46.940Z,29.56
2022-12-24T03:28:55.832Z,22.80
2022-12-24T03:34:04.669Z,23.10
2022-12-24T03:39:13.649Z,25.51
2022-12-24T03:44:22.666Z,23.13
2022-12-24T03:49:31.756Z,25.57
2022-12-24T03:54:40.026Z,22.75
2022-12-24T03:59:49.075Z,18.74
2022-12-24T04:04:57.537Z,20.86
2022-12-24T04:10:06.914Z,22.49
2022-12-24T04:15:15.659Z,20.58
2022-12-24T04:20:24.563Z,20.03
2022-12-24T04:25:32.846Z,20.28
2022-12-24T04:30:41.647Z,22.22
2022-12-24T04:35:49.844Z,18.58
2022-12-24T04:40:58.515Z,18.99
2022-12-24T04:46:06.977Z,19.10
2022-12-24T04:51:15.683Z,18.84
2022-12-24T04:56:24.132Z,23.66
2022-12-24T05:01:33.146Z,23.61
2022-12-24T05:06:41.664Z,21.34
2022-12-24T05:11:50.654Z,21.37
2022-12-24T05:16:59.429Z,23.66
2022-12-24T05:22:08.212Z,23.15
2022-12-24T05:27:16.314Z,22.99
2022-12-24T05:32:25.597Z,28.51
2022-12-24T05:37:34.416Z,29.30
2022-12-24T05:42:43.173Z,24.65
2022-12-24T05:47:51.707Z,17.63
2022-12-24T05:53:00.464Z,18.64
2022-12-24T05:58:08.854Z,20.62
2022-12-24T06:03:17.553Z,20.92
2022-12-24T06:08:26.200Z,28.71
2022-12-24T06:13:35.087Z,30.03
2022-12-24T06:23:49.402Z,32.33
2022-12-24T06:28:58.023Z,28.38
2022-12-24T06:34:07.058Z,26.37
2022-12-24T06:39:15.528Z,27.69
2022-12-24T06:44:24.317Z,23.99
2022-12-24T06:49:33.092Z,26.38
2022-12-24T06:54:41.451Z,23.34
2022-12-24T06:59:50.071Z,23.31
2022-12-24T07:04:59.078Z,24.05
2022-12-24T07:10:07.358Z,25.05
2022-12-24T07:15:15.917Z,23.40
2022-12-24T07:20:24.520Z,22.97
2022-12-24T07:25:33.520Z,21.84
2022-12-24T07:30:41.826Z,21.83
2022-12-24T07:35:55.812Z,19.27
2022-12-24T07:40:59.138Z,18.08
2022-12-24T07:46:08.486Z,17.24
2022-12-24T07:51:17.610Z,17.83
2022-12-24T07:56:26.260Z,17.95
2022-12-24T08:01:34.692Z,19.22
2022-12-24T08:06:43.297Z,17.03
2022-12-24T08:11:52.583Z,19.00
2022-12-24T08:17:00.382Z,16.15
2022-12-24T08:22:09.072Z,62.32
2022-12-24T08:27:18.223Z,21.20
2022-12-24T08:32:26.595Z,17.16
2022-12-24T08:37:35.760Z,16.07
2022-12-24T08:42:44.424Z,17.02
2022-12-24T08:47:53.554Z,16.63
2022-12-24T08:53:02.548Z,17.23
2022-12-24T08:58:11.303Z,16.69
2022-12-24T09:03:26.998Z,18.89
2022-12-24T09:08:28.154Z,19.00
2022-12-24T09:13:36.968Z,17.85
2022-12-24T09:18:45.917Z,16.30
2022-12-24T09:23:54.424Z,17.78
2022-12-24T09:29:03.401Z,17.93
2022-12-24T09:34:11.687Z,21.17
2022-12-24T09:39:20.941Z,20.09
2022-12-24T09:44:29.682Z,23.13
2022-12-24T09:49:38.875Z,20.57
2022-12-24T09:54:49.848Z,21.77
2022-12-24T09:59:55.124Z,21.37
2022-12-24T10:05:03.837Z,22.09
2022-12-24T10:10:12.489Z,20.95
2022-12-24T10:15:21.180Z,19.12
2022-12-24T10:20:30.527Z,18.89
2022-12-24T10:25:39.279Z,18.58
2022-12-24T10:30:48.891Z,19.72
2022-12-24T10:35:57.358Z,20.97
2022-12-24T10:41:06.500Z,22.74
2022-12-24T10:46:14.831Z,22.60
2022-12-24T10:51:23.580Z,21.05
2022-12-24T10:56:32.362Z,20.35
2022-12-24T11:01:41.562Z,20.69
2022-12-24T11:06:50.310Z,18.94
2022-12-24T11:12:03.745Z,19.85
2022-12-24T11:17:06.841Z,19.08
2022-12-24T11:22:15.798Z,16.09
2022-12-24T11:27:24.291Z,14.31
2022-12-24T11:32:33.001Z,14.31
2022-12-24T11:37:41.539Z,12.44
2022-12-24T11:42:50.571Z,12.34
2022-12-24T11:47:59.133Z,11.28
2022-12-24T11:53:07.796Z,12.12
2022-12-24T11:58:16.316Z,12.03
2022-12-24T12:03:24.951Z,11.64
2022-12-24T12:08:33.293Z,13.26
2022-12-24T12:13:42.404Z,11.66
2022-12-24T12:18:51.020Z,11.74
2022-12-24T12:23:59.973Z,11.92
2022-12-24T12:29:08.556Z,11.60
2022-12-24T12:34:17.731Z,12.73
2022-12-24T12:39:26.303Z,11.91
2022-12-24T12:44:35.244Z,11.77
2022-12-24T12:49:43.717Z,11.80
2022-12-24T12:54:53.107Z,13.04
2022-12-24T13:00:01.762Z,11.34
2022-12-24T13:05:10.945Z,12.21
2022-12-24T13:10:19.593Z,11.05
2022-12-24T13:15:28.533Z,10.55
2022-12-24T13:20:36.739Z,10.87
2022-12-24T13:25:45.837Z,10.80
2022-12-24T13:30:54.082Z,11.49
2022-12-24T13:36:02.776Z,11.31
2022-12-24T13:41:11.430Z,11.59
2022-12-24T13:46:20.569Z,11.50
2022-12-24T13:51:28.955Z,12.31
2022-12-24T13:56:37.502Z,11.80
2022-12-24T14:01:45.910Z,11.88
2022-12-24T14:06:54.495Z,12.66
2022-12-24T14:12:03.024Z,13.09
2022-12-24T14:17:12.104Z,14.65
2022-12-24T14:22:20.534Z,16.40
2022-12-24T14:27:29.342Z,14.46
2022-12-24T14:32:37.953Z,15.30
2022-12-24T14:37:47.201Z,14.50
2022-12-24T14:42:55.547Z,14.48
2022-12-24T14:48:04.513Z,14.62
2022-12-24T14:53:18.605Z,18.09
2022-12-24T14:58:21.061Z,17.87
2022-12-24T15:03:29.791Z,17.60
2022-12-24T15:08:38.552Z,16.86
2022-12-24T15:13:46.855Z,18.02
2022-12-24T15:18:55.731Z,18.26
2022-12-24T15:24:03.983Z,17.76
2022-12-24T15:29:12.765Z,19.00
2022-12-24T15:34:21.132Z,19.61
2022-12-24T15:39:29.862Z,20.05
2022-12-24T15:44:37.934Z,19.99
2022-12-24T15:49:46.466Z,19.47
2022-12-24T15:54:58.118Z,19.28
2022-12-24T16:00:03.332Z,16.04
2022-12-24T16:05:13.003Z,16.73
2022-12-24T16:10:21.404Z,14.95
2022-12-24T16:15:29.712Z,11.39
2022-12-24T16:20:37.998Z,9.56
2022-12-24T16:25:46.161Z,7.39
2022-12-24T16:30:54.948Z,6.69
2022-12-24T16:36:03.041Z,6.48
2022-12-24T16:41:11.289Z,9.38
2022-12-24T16:46:19.775Z,11.81
2022-12-24T16:51:28.245Z,12.54
2022-12-24T16:56:36.364Z,13.45
2022-12-24T17:01:45.087Z,12.73
2022-12-24T17:06:53.118Z,14.17
2022-12-24T17:12:01.880Z,10.68
2022-12-24T17:17:10.177Z,12.36
2022-12-24T17:22:18.522Z,12.74
2022-12-24T17:27:26.628Z,11.23
2022-12-24T17:32:35.220Z,8.28
2022-12-24T17:37:43.482Z,8.47
2022-12-24T17:42:52.754Z,7.66
2022-12-24T17:48:01.193Z,8.20
2022-12-24T17:53:09.714Z,10.68
2022-12-24T17:58:17.796Z,9.57
2022-12-24T18:03:27.382Z,6.05
2022-12-24T18:08:35.791Z,6.09
2022-12-24T18:13:44.708Z,9.30
2022-12-24T18:18:52.991Z,10.03
2022-12-24T18:24:01.584Z,9.87
2022-12-24T18:29:09.857Z,13.56
2022-12-24T18:34:19.447Z,15.41
2022-12-24T18:39:27.701Z,18.90
2022-12-24T18:44:39.641Z,18.75
2022-12-24T18:49:37.859Z,16.42
2022-12-24T18:54:46.353Z,14.23
2022-12-24T18:59:55.033Z,13.93
2022-12-24T19:05:03.890Z,12.06
2022-12-24T19:10:12.152Z,10.50
2022-12-24T19:15:22.413Z,9.19
2022-12-24T19:20:20.628Z,8.59
2022-12-24T19:25:29.091Z,8.46
2022-12-24T19:30:37.586Z,6.08
2022-12-24T19:35:46.554Z,6.30
2022-12-24T19:40:54.874Z,5.23
2022-12-24T19:46:03.912Z,5.68
2022-12-24T19:51:12.451Z,4.27
2022-12-24T19:56:21.407Z,4.43
2022-12-24T20:01:30.232Z,4.22
2022-12-24T20:06:38.566Z,3.73
2022-12-24T20:11:46.683Z,3.76
2022-12-24T20:16:55.724Z,3.89
2022-12-24T20:22:04.014Z,3.52
2022-12-24T20:27:12.832Z,3.43
2022-12-24T20:32:20.974Z,3.58
2022-12-24T20:37:29.727Z,3.81
2022-12-24T20:42:37.972Z,4.14
2022-12-24T20:47:46.730Z,5.52
2022-12-24T20:52:54.900Z,5.89
2022-12-24T20:58:03.449Z,5.99
2022-12-24T21:03:11.953Z,5.50
2022-12-24T21:08:20.659Z,5.75
2022-12-24T21:13:29.345Z,5.69
2022-12-24T21:18:38.236Z,6.14
2022-12-24T21:23:46.550Z,5.71
2022-12-24T21:28:55.423Z,5.98
2022-12-24T21:34:03.880Z,5.72
2022-12-24T21:39:12.395Z,6.12
2022-12-24T21:44:20.454Z,5.85
2022-12-24T21:49:29.195Z,5.46
2022-12-24T21:54:37.524Z,5.96
2022-12-24T21:59:46.180Z,5.92
2022-12-24T22:04:54.746Z,7.95
2022-12-24T22:10:03.442Z,8.61
2022-12-24T22:15:11.911Z,8.42
2022-12-24T22:20:20.929Z,6.44
2022-12-24T22:25:29.425Z,6.01
2022-12-24T22:30:38.139Z,5.41
2022-12-24T22:35:46.313Z,4.91
2022-12-24T22:40:55.073Z,6.27
2022-12-24T22:46:03.662Z,5.55
2022-12-24T22:51:12.224Z,5.76
2022-12-24T22:56:20.796Z,5.86
2022-12-24T23:01:29.408Z,6.79
2022-12-24T23:06:37.581Z,6.58
2022-12-24T23:11:46.198Z,6.77
2022-12-24T23:16:54.461Z,6.16
2022-12-24T23:22:02.933Z,6.78
2022-12-24T23:27:11.124Z,6.51
2022-12-24T23:32:19.552Z,6.48
2022-12-24T23:37:34.609Z,7.04
2022-12-24T23:42:35.993Z,5.94
2022-12-24T23:47:44.370Z,7.06
2022-12-24T23:52:53.175Z,6.28
2022-12-24T23:58:01.545Z,5.35
